Time;durP1;ratioP1;P1;durP2;ratioP2;P2;SDS_P1;SDS_P2;PMS_P1;PMS_P2;Temp;Humidity;BMP_temperature;BMP_pressure;BME280_temperature;BME280_humidity;BME280_pressure;Samples;Min_cycle;Max_cycle;Signal;HPM_P1;HPM_P2
2023/06/03 00:00:55;;;;;;;;;;;11.30;99.90;;;;;;8355785;28;19970;-77
2023/06/03 00:04:55;;;;;;;;;;;11.40;99.90;;;;;;8349078;28;19915;-77
2023/06/03 00:08:56;;;;;;;;;;;11.60;99.90;;;;;;8357409;28;19918;-77
2023/06/03 00:12:56;;;;;;;;;;;11.70;99.90;;;;;;8364376;28;20369;-77
2023/06/03 00:16:58;;;;;;;;;;;11.60;99.90;;;;;;8364745;28;19935;-77
2023/06/03 00:21:01;;;;;;;;;;;11.30;99.90;;;;;;8344801;28;20016;-77
2023/06/03 00:25:01;;;;;;;;;;;11.10;99.90;;;;;;8348744;28;19940;-77
2023/06/03 00:29:02;;;;;;;;;;;10.80;99.90;;;;;;8370896;28;19935;-78
2023/06/03 00:33:03;;;;;;;;;;;10.70;99.90;;;;;;8313575;28;19913;-77
2023/06/03 00:37:04;;;;;;;;;;;10.60;99.90;;;;;;8349988;28;19936;-78
2023/06/03 00:41:05;;;;;;;;;;;10.70;99.90;;;;;;8360087;28;19917;-78
2023/06/03 00:45:05;;;;;;;;;;;10.70;99.90;;;;;;8360715;28;20411;-79
2023/06/03 00:49:06;;;;;;;;;;;10.60;99.90;;;;;;8329614;28;19920;-77
2023/06/03 00:53:07;;;;;;;;;;;10.40;99.90;;;;;;8357563;28;20376;-79
2023/06/03 00:57:08;;;;;;;;;;;10.30;99.90;;;;;;8346751;28;19925;-79
2023/06/03 01:01:10;;;;;;;;;;;10.30;99.90;;;;;;8390361;28;19917;-78
2023/06/03 01:05:11;;;;;;;;;;;10.00;99.90;;;;;;8380579;28;20300;-79
2023/06/03 01:09:12;;;;;;;;;;;9.80;99.90;;;;;;8373483;28;20038;-77
2023/06/03 01:13:31;;;;;;;;;;;9.70;99.90;;;;;;8347721;28;19955;-76
2023/06/03 01:17:35;;;;;;;;;;;9.60;99.90;;;;;;8354952;28;19913;-79
2023/06/03 01:21:38;;;;;;;;;;;9.60;99.90;;;;;;8391196;28;19924;-79
2023/06/03 01:25:41;;;;;;;;;;;9.40;99.90;;;;;;8397782;28;19908;-78
2023/06/03 01:29:43;;;;;;;;;;;9.30;99.90;;;;;;8366872;28;19912;-78
2023/06/03 01:33:44;;;;;;;;;;;9.20;99.90;;;;;;8344257;28;19952;-78
2023/06/03 01:37:45;;;;;;;;;;;9.20;99.90;;;;;;8374454;28;20711;-79
2023/06/03 01:41:46;;;;;;;;;;;9.10;99.90;;;;;;8365471;28;19949;-79
2023/06/03 01:45:46;;;;;;;;;;;8.90;99.90;;;;;;8350244;28;19999;-79
2023/06/03 01:49:47;;;;;;;;;;;8.80;99.90;;;;;;8359941;28;19913;-79
2023/06/03 01:53:47;;;;;;;;;;;8.80;99.90;;;;;;8368494;28;19967;-79
2023/06/03 01:57:48;;;;;;;;;;;8.80;99.90;;;;;;8369690;28;19928;-79
2023/06/03 02:01:52;;;;;;;;;;;8.80;99.90;;;;;;8386088;28;20458;-79
2023/06/03 02:05:52;;;;;;;;;;;8.80;99.90;;;;;;8354296;28;19920;-78
2023/06/03 02:09:53;;;;;;;;;;;8.80;99.90;;;;;;8360817;28;20003;-79
2023/06/03 02:13:53;;;;;;;;;;;8.80;99.90;;;;;;8390144;28;19915;-78
2023/06/03 02:17:55;;;;;;;;;;;8.80;99.90;;;;;;8375550;28;20015;-79
2023/06/03 02:21:57;;;;;;;;;;;8.80;99.90;;;;;;8386184;28;19912;-79
2023/06/03 02:25:58;;;;;;;;;;;8.70;99.90;;;;;;8366670;28;19909;-78
2023/06/03 02:29:58;;;;;;;;;;;8.80;99.90;;;;;;8367391;28;20394;-78
2023/06/03 02:33:58;;;;;;;;;;;8.80;99.90;;;;;;8357835;28;20563;-78
2023/06/03 02:37:59;;;;;;;;;;;8.70;99.90;;;;;;8376491;28;19909;-79
2023/06/03 02:41:59;;;;;;;;;;;8.60;99.90;;;;;;8349742;28;19916;-77
2023/06/03 02:46:00;;;;;;;;;;;8.50;99.90;;;;;;8374224;28;19963;-78
2023/06/03 02:50:00;;;;;;;;;;;8.30;99.90;;;;;;8380141;28;19909;-77
2023/06/03 02:54:01;;;;;;;;;;;8.30;99.90;;;;;;8364471;28;19913;-79
2023/06/03 02:58:01;;;;;;;;;;;8.20;99.90;;;;;;8375731;28;19966;-79
2023/06/03 03:02:02;;;;;;;;;;;8.50;99.90;;;;;;8372397;28;19936;-79
2023/06/03 03:06:03;;;;;;;;;;;8.40;99.90;;;;;;8367424;28;19909;-79
2023/06/03 03:10:04;;;;;;;;;;;8.20;99.90;;;;;;8374601;28;19976;-79
2023/06/03 03:14:05;;;;;;;;;;;8.10;99.90;;;;;;8373357;28;20296;-78
2023/06/03 03:18:06;;;;;;;;;;;8.00;99.90;;;;;;8374864;28;19916;-78
2023/06/03 03:22:06;;;;;;;;;;;7.80;99.90;;;;;;8372158;28;19916;-79
2023/06/03 03:26:08;;;;;;;;;;;7.70;99.90;;;;;;8353006;28;19920;-78
2023/06/03 03:30:09;;;;;;;;;;;7.60;99.90;;;;;;8355880;28;19913;-78
2023/06/03 03:34:09;;;;;;;;;;;7.50;99.90;;;;;;8346267;28;19920;-79
2023/06/03 03:38:10;;;;;;;;;;;7.50;99.90;;;;;;8345448;28;19913;-79
2023/06/03 03:42:10;;;;;;;;;;;7.60;99.90;;;;;;8363277;28;19920;-76
2023/06/03 03:46:11;;;;;;;;;;;7.70;99.90;;;;;;8356333;28;19916;-78
2023/06/03 03:50:20;;;;;;;;;;;7.80;99.90;;;;;;8369169;28;19997;-78
2023/06/03 03:54:23;;;;;;;;;;;8.10;99.90;;;;;;8355327;28;19935;-78
2023/06/03 03:58:23;;;;;;;;;;;8.30;99.90;;;;;;8391928;28;19924;-79
2023/06/03 04:02:24;;;;;;;;;;;8.50;99.90;;;;;;8376444;28;20423;-79
2023/06/03 04:10:29;;;;;;;;;;;9.30;99.90;;;;;;8376626;28;20506;-79
2023/06/03 04:14:44;;;;;;;;;;;9.70;99.90;;;;;;8361169;28;19909;-79
2023/06/03 04:18:45;;;;;;;;;;;10.30;99.90;;;;;;8339625;28;19917;-79
2023/06/03 04:22:45;;;;;;;;;;;11.00;99.90;;;;;;8339274;28;19980;-79
2023/06/03 04:26:47;;;;;;;;;;;11.70;99.90;;;;;;8324361;28;20274;-79
2023/06/03 04:30:50;;;;;;;;;;;12.10;99.90;;;;;;8327828;28;19917;-80
2023/06/03 04:34:51;;;;;;;;;;;13.10;99.90;;;;;;8338510;28;19983;-77
2023/06/03 04:38:52;;;;;;;;;;;13.70;99.90;;;;;;8347838;28;19972;-79
2023/06/03 04:42:52;;;;;;;;;;;13.90;99.90;;;;;;8342013;28;20318;-80
2023/06/03 04:46:53;;;;;;;;;;;14.10;99.90;;;;;;8332584;28;19913;-79
2023/06/03 04:50:53;;;;;;;;;;;14.40;99.90;;;;;;8356719;28;19913;-80
2023/06/03 04:54:54;;;;;;;;;;;14.70;99.90;;;;;;8336597;28;19914;-80
2023/06/03 04:58:55;;;;;;;;;;;15.10;99.90;;;;;;8330119;28;19913;-79
2023/06/03 05:02:56;;;;;;;;;;;15.60;99.90;;;;;;8354589;28;19916;-80
2023/06/03 05:06:57;;;;;;;;;;;15.80;99.90;;;;;;8333977;28;20006;-78
2023/06/03 05:10:58;;;;;;;;;;;15.60;99.90;;;;;;8345327;28;20313;-78
2023/06/03 05:14:58;;;;;;;;;;;15.50;99.90;;;;;;8355416;28;19908;-79
2023/06/03 05:18:58;;;;;;;;;;;15.60;99.90;;;;;;8357058;28;19912;-79
2023/06/03 05:22:59;;;;;;;;;;;15.70;99.90;;;;;;8353900;28;19923;-78
2023/06/03 05:26:59;;;;;;;;;;;15.70;99.90;;;;;;8363223;28;19920;-78
2023/06/03 05:31:00;;;;;;;;;;;15.60;99.90;;;;;;8334703;28;19971;-78
2023/06/03 05:35:00;;;;;;;;;;;15.90;99.90;;;;;;8341864;28;20385;-80
2023/06/03 05:39:01;;;;;;;;;;;16.10;99.90;;;;;;8351836;28;19909;-77
2023/06/03 05:43:01;;;;;;;;;;;16.50;99.90;;;;;;8337723;28;19917;-78
2023/06/03 05:47:02;;;;;;;;;;;16.70;99.90;;;;;;8335252;28;19920;-79
2023/06/03 05:51:02;;;;;;;;;;;16.70;99.90;;;;;;8342616;28;19967;-79
2023/06/03 05:55:03;;;;;;;;;;;17.00;99.90;;;;;;8337009;28;19956;-80
2023/06/03 05:59:04;;;;;;;;;;;17.10;99.90;;;;;;8351562;28;19909;-83
2023/06/03 06:03:05;;;;;;;;;;;17.50;99.90;;;;;;8331437;28;19967;-79
2023/06/03 06:07:05;;;;;;;;;;;17.70;99.90;;;;;;8332158;28;19919;-79
2023/06/03 06:11:06;;;;;;;;;;;17.70;99.90;;;;;;8348803;28;19928;-78
2023/06/03 06:15:06;;;;;;;;;;;17.70;99.90;;;;;;8334791;28;19921;-79
2023/06/03 06:19:07;;;;;;;;;;;17.80;99.90;;;;;;8333356;28;19956;-78
2023/06/03 06:23:07;;;;;;;;;;;18.60;99.90;;;;;;8344663;28;19920;-79
2023/06/03 06:27:08;;;;;;;;;;;18.30;99.90;;;;;;8331571;28;19919;-83
2023/06/03 06:31:09;;;;;;;;;;;18.60;99.90;;;;;;8354555;28;19947;-83
2023/06/03 06:35:10;;;;;;;;;;;18.70;99.90;;;;;;8334331;28;19920;-83
2023/06/03 06:39:33;;;;;;;;;;;18.80;99.90;;;;;;8332917;28;20409;-83
2023/06/03 06:43:35;;;;;;;;;;;18.80;99.90;;;;;;8325651;28;19927;-83
2023/06/03 06:47:36;;;;;;;;;;;18.80;99.90;;;;;;8355466;28;19916;-83
2023/06/03 06:51:37;;;;;;;;;;;19.70;99.90;;;;;;8349835;28;19913;-84
2023/06/03 06:55:49;;;;;;;;;;;20.40;99.90;;;;;;8343545;28;19939;-82
2023/06/03 06:59:53;;;;;;;;;;;20.20;99.90;;;;;;8356145;28;19948;-83
2023/06/03 07:03:54;;;;;;;;;;;20.70;99.90;;;;;;8337926;28;19924;-81
2023/06/03 07:07:54;;;;;;;;;;;21.10;99.90;;;;;;8332323;28;19917;-82
2023/06/03 07:11:56;;;;;;;;;;;21.20;99.90;;;;;;8323556;28;20453;-83
2023/06/03 07:15:57;;;;;;;;;;;21.50;99.90;;;;;;8354878;28;20325;-84
2023/06/03 07:19:57;;;;;;;;;;;21.40;99.90;;;;;;8323427;28;19913;-83
2023/06/03 07:23:58;;;;;;;;;;;21.20;99.90;;;;;;8330100;28;20027;-83
2023/06/03 07:27:58;;;;;;;;;;;21.50;99.90;;;;;;8350257;28;19916;-83
2023/06/03 07:32:00;;;;;;;;;;;21.30;99.90;;;;;;8325436;28;20401;-83
2023/06/03 07:36:02;;;;;;;;;;;21.60;99.90;;;;;;8325379;28;19913;-83
2023/06/03 07:40:08;;;;;;;;;;;21.50;99.90;;;;;;8341997;28;19980;-83
2023/06/03 07:44:09;;;;;;;;;;;21.00;99.90;;;;;;8322518;28;19963;-83
2023/06/03 07:48:14;;;;;;;;;;;20.90;99.90;;;;;;8331983;28;21302;-83
2023/06/03 07:52:16;;;;;;;;;;;20.70;99.90;;;;;;8335350;28;19919;-84
2023/06/03 07:56:17;;;;;;;;;;;21.20;99.90;;;;;;8357868;28;19920;-84
2023/06/03 08:00:18;;;;;;;;;;;21.50;99.90;;;;;;8326807;28;19940;-82
2023/06/03 08:04:21;;;;;;;;;;;21.30;99.90;;;;;;8324252;28;19924;-82
2023/06/03 08:08:28;;;;;;;;;;;21.50;99.90;;;;;;8331575;28;19924;-83
2023/06/03 08:12:35;;;;;;;;;;;22.10;99.90;;;;;;8353721;28;20388;-83
2023/06/03 08:16:35;;;;;;;;;;;21.70;99.90;;;;;;8327554;28;19914;-82
2023/06/03 08:20:36;;;;;;;;;;;22.20;99.90;;;;;;8329825;28;19919;-84
2023/06/03 08:24:36;;;;;;;;;;;22.50;99.90;;;;;;8332674;28;19917;-84
2023/06/03 08:28:38;;;;;;;;;;;22.00;99.90;;;;;;8324869;28;19921;-79
2023/06/03 08:32:39;;;;;;;;;;;21.70;99.90;;;;;;8333407;28;19925;-80
2023/06/03 08:36:39;;;;;;;;;;;21.70;99.90;;;;;;8327999;28;20406;-80
2023/06/03 08:40:45;;;;;;;;;;;22.30;99.90;;;;;;8339299;28;20385;-79
2023/06/03 08:44:50;;;;;;;;;;;23.10;99.90;;;;;;8320982;28;20296;-79
2023/06/03 08:48:53;;;;;;;;;;;23.10;99.90;;;;;;8322371;28;19971;-79
2023/06/03 08:52:54;;;;;;;;;;;22.40;99.90;;;;;;8330821;28;20574;-78
2023/06/03 08:57:00;;;;;;;;;;;22.40;99.90;;;;;;8326484;28;19917;-81
2023/06/03 09:01:01;;;;;;;;;;;22.20;99.90;;;;;;8315668;28;19917;-79
2023/06/03 09:05:03;;;;;;;;;;;22.50;99.90;;;;;;8324487;28;20015;-79
2023/06/03 09:09:04;;;;;;;;;;;22.50;99.90;;;;;;8343565;28;19925;-79
2023/06/03 09:13:05;;;;;;;;;;;22.30;99.90;;;;;;8330417;28;19955;-79
2023/06/03 09:17:06;;;;;;;;;;;22.50;99.90;;;;;;8346242;28;19913;-80
2023/06/03 09:21:08;;;;;;;;;;;22.80;99.90;;;;;;8326692;28;20009;-80
2023/06/03 09:25:09;;;;;;;;;;;23.00;99.90;;;;;;8342469;28;19928;-81
2023/06/03 09:29:11;;;;;;;;;;;23.20;99.90;;;;;;8332291;28;20015;-79
2023/06/03 09:33:12;;;;;;;;;;;23.70;99.90;;;;;;8360431;28;20336;-80
2023/06/03 09:37:12;;;;;;;;;;;23.40;99.90;;;;;;8342510;28;19917;-81
2023/06/03 09:41:17;;;;;;;;;;;23.30;99.90;;;;;;8349431;28;19921;-79
2023/06/03 09:45:31;;;;;;;;;;;23.70;99.90;;;;;;8369535;28;20437;-81
2023/06/03 09:49:31;;;;;;;;;;;24.00;99.90;;;;;;8325027;28;20396;-79
2023/06/03 09:53:32;;;;;;;;;;;24.10;99.90;;;;;;8325177;28;20108;-79
2023/06/03 09:57:32;;;;;;;;;;;24.40;99.90;;;;;;8342435;28;19909;-78
2023/06/03 10:01:33;;;;;;;;;;;23.90;99.90;;;;;;8330925;28;19964;-76
2023/06/03 10:05:34;;;;;;;;;;;23.80;99.90;;;;;;8326236;28;19909;-79
2023/06/03 10:09:35;;;;;;;;;;;24.00;99.90;;;;;;8336191;28;19928;-78
2023/06/03 10:13:36;;;;;;;;;;;24.20;99.90;;;;;;8345657;28;19956;-79
2023/06/03 10:17:44;;;;;;;;;;;24.30;99.80;;;;;;8318165;28;20385;-79
2023/06/03 10:21:44;;;;;;;;;;;25.00;99.90;;;;;;8329351;28;19992;-77
2023/06/03 10:25:47;;;;;;;;;;;24.80;97.10;;;;;;8353978;28;19913;-77
2023/06/03 10:29:50;;;;;;;;;;;24.60;98.50;;;;;;8344867;28;20297;-78
2023/06/03 10:33:52;;;;;;;;;;;24.70;98.40;;;;;;8330279;28;19909;-80
2023/06/03 10:38:09;;;;;;;;;;;25.00;99.90;;;;;;8327952;28;20715;-81
2023/06/03 10:42:10;;;;;;;;;;;25.90;98.30;;;;;;8348637;28;20369;-79
2023/06/03 10:46:11;;;;;;;;;;;26.20;95.40;;;;;;8330893;28;19912;-79
2023/06/03 10:50:25;;;;;;;;;;;26.70;97.40;;;;;;8332119;28;19920;-79
2023/06/03 10:54:32;;;;;;;;;;;27.40;92.70;;;;;;8341351;28;19913;-79
2023/06/03 10:58:33;;;;;;;;;;;26.80;93.70;;;;;;8322154;28;19992;-79
2023/06/03 11:02:52;;;;;;;;;;;25.80;93.60;;;;;;8345111;28;20400;-78
2023/06/03 11:06:53;;;;;;;;;;;25.90;92.90;;;;;;8333996;28;20012;-80
2023/06/03 11:10:54;;;;;;;;;;;24.40;94.40;;;;;;8324555;28;19925;-79
2023/06/03 11:14:55;;;;;;;;;;;24.30;98.10;;;;;;8354496;28;19908;-79
2023/06/03 11:19:15;;;;;;;;;;;26.20;92.90;;;;;;8332338;28;19913;-81
2023/06/03 11:23:35;;;;;;;;;;;25.80;93.60;;;;;;8329429;28;19932;-81
2023/06/03 11:27:35;;;;;;;;;;;26.00;91.40;;;;;;8332276;28;19955;-79
2023/06/03 11:31:43;;;;;;;;;;;24.30;93.70;;;;;;8348573;28;19908;-80
2023/06/03 11:35:43;;;;;;;;;;;25.60;94.70;;;;;;8334649;28;19960;-76
2023/06/03 11:40:06;;;;;;;;;;;27.20;90.10;;;;;;8353936;28;19936;-78
2023/06/03 11:44:22;;;;;;;;;;;25.40;90.70;;;;;;8342874;28;19921;-79
2023/06/03 11:48:30;;;;;;;;;;;24.70;95.60;;;;;;8330135;28;19909;-78
2023/06/03 11:52:35;;;;;;;;;;;27.80;85.60;;;;;;8345315;28;19917;-78
2023/06/03 11:56:44;;;;;;;;;;;29.70;81.00;;;;;;8345034;28;19978;-78
2023/06/03 12:00:44;;;;;;;;;;;28.00;80.80;;;;;;8330844;28;20438;-78
2023/06/03 12:04:46;;;;;;;;;;;26.90;88.30;;;;;;8328471;28;19970;-78
2023/06/03 12:08:47;;;;;;;;;;;28.70;83.50;;;;;;8351079;28;19999;-78
2023/06/03 12:13:06;;;;;;;;;;;27.30;83.00;;;;;;8330746;28;20003;-77
2023/06/03 12:17:16;;;;;;;;;;;25.30;84.80;;;;;;8349901;28;19908;-78
2023/06/03 12:21:23;;;;;;;;;;;26.60;86.60;;;;;;8333043;28;20440;-77
2023/06/03 12:25:23;;;;;;;;;;;26.20;87.70;;;;;;8333606;28;19964;-78
2023/06/03 12:29:24;;;;;;;;;;;26.80;83.10;;;;;;8329420;28;20473;-77
2023/06/03 12:33:37;;;;;;;;;;;27.60;84.10;;;;;;8331794;28;19912;-77
2023/06/03 12:37:38;;;;;;;;;;;26.50;81.90;;;;;;8330926;28;20078;-78
2023/06/03 12:41:47;;;;;;;;;;;25.80;84.20;;;;;;8351331;28;19925;-78
2023/06/03 12:45:48;;;;;;;;;;;28.00;77.70;;;;;;8333839;28;19977;-78
2023/06/03 12:50:04;;;;;;;;;;;28.90;72.30;;;;;;8332802;28;19912;-79
2023/06/03 12:54:05;;;;;;;;;;;27.00;76.40;;;;;;8335145;28;19916;-80
2023/06/03 12:58:06;;;;;;;;;;;27.90;77.00;;;;;;8339387;28;19951;-78
2023/06/03 13:02:06;;;;;;;;;;;31.20;68.40;;;;;;8355149;28;19924;-79
2023/06/03 13:06:07;;;;;;;;;;;30.40;68.90;;;;;;8329808;28;20020;-78
2023/06/03 13:10:08;;;;;;;;;;;27.20;71.20;;;;;;8332004;28;19925;-80
2023/06/03 13:14:09;;;;;;;;;;;25.00;77.80;;;;;;8336924;28;19961;-79
2023/06/03 13:18:09;;;;;;;;;;;24.50;83.50;;;;;;8341238;28;19913;-78
2023/06/03 13:22:10;;;;;;;;;;;27.50;76.10;;;;;;8341152;28;19921;-79
2023/06/03 13:26:11;;;;;;;;;;;29.00;71.50;;;;;;8353769;28;19973;-79
2023/06/03 13:30:12;;;;;;;;;;;28.80;62.20;;;;;;8334369;28;19917;-80
2023/06/03 13:34:13;;;;;;;;;;;27.00;71.20;;;;;;8342366;28;19951;-81
2023/06/03 13:38:13;;;;;;;;;;;27.50;74.30;;;;;;8332368;28;19916;-81
2023/06/03 13:42:14;;;;;;;;;;;30.50;62.80;;;;;;8332505;28;20466;-79
2023/06/03 13:46:14;;;;;;;;;;;31.60;61.00;;;;;;8347142;28;19909;-79
2023/06/03 13:50:15;;;;;;;;;;;27.80;66.40;;;;;;8341688;28;19913;-78
2023/06/03 13:54:15;;;;;;;;;;;25.50;72.10;;;;;;8326700;28;19966;-78
2023/06/03 13:58:16;;;;;;;;;;;25.00;75.10;;;;;;8340366;28;20000;-78
2023/06/03 14:02:17;;;;;;;;;;;27.80;66.70;;;;;;8340512;28;19995;-79
2023/06/03 14:06:17;;;;;;;;;;;27.10;66.30;;;;;;8339087;28;20007;-79
2023/06/03 14:10:18;;;;;;;;;;;26.40;70.50;;;;;;8338206;28;19921;-80
2023/06/03 14:14:19;;;;;;;;;;;29.50;70.90;;;;;;8340495;28;19940;-77
2023/06/03 14:18:20;;;;;;;;;;;32.10;56.70;;;;;;8336962;28;19920;-77
2023/06/03 14:22:21;;;;;;;;;;;30.30;60.20;;;;;;8359688;28;19924;-79
2023/06/03 14:26:26;;;;;;;;;;;29.80;60.20;;;;;;8352741;28;19909;-78
2023/06/03 14:30:26;;;;;;;;;;;29.90;61.50;;;;;;8355584;28;19912;-78
2023/06/03 14:34:27;;;;;;;;;;;31.30;58.60;;;;;;8338257;28;19917;-77
2023/06/03 14:38:28;;;;;;;;;;;31.60;56.00;;;;;;8348465;28;20301;-78
2023/06/03 14:42:30;;;;;;;;;;;30.90;55.90;;;;;;8331323;28;19921;-78
2023/06/03 14:46:30;;;;;;;;;;;30.40;58.90;;;;;;8334499;28;19913;-78
2023/06/03 14:50:32;;;;;;;;;;;30.60;58.80;;;;;;8335535;28;19920;-80
2023/06/03 14:54:33;;;;;;;;;;;31.20;58.20;;;;;;8329269;28;19917;-79
2023/06/03 14:58:33;;;;;;;;;;;33.30;55.70;;;;;;8328239;28;20423;-77
2023/06/03 15:02:34;;;;;;;;;;;32.80;53.60;;;;;;8355020;28;19917;-78
2023/06/03 15:06:36;;;;;;;;;;;31.50;54.30;;;;;;8333660;28;19916;-78
2023/06/03 15:10:36;;;;;;;;;;;32.60;55.80;;;;;;8351790;28;19917;-78
2023/06/03 15:14:37;;;;;;;;;;;30.00;57.50;;;;;;8331577;28;20070;-78
2023/06/03 15:18:37;;;;;;;;;;;26.40;66.40;;;;;;8335562;28;20389;-77
2023/06/03 15:22:38;;;;;;;;;;;24.70;72.90;;;;;;8343644;28;21664;-78
2023/06/03 15:26:38;;;;;;;;;;;26.30;69.30;;;;;;8349597;28;20405;-78
2023/06/03 15:30:39;;;;;;;;;;;28.60;62.10;;;;;;8336685;28;19928;-80
2023/06/03 15:34:39;;;;;;;;;;;29.00;61.10;;;;;;8345022;28;19921;-79
2023/06/03 15:38:40;;;;;;;;;;;28.70;62.50;;;;;;8331181;28;20007;-79
2023/06/03 15:42:40;;;;;;;;;;;28.40;61.60;;;;;;8324969;28;19928;-78
2023/06/03 15:46:41;;;;;;;;;;;27.00;65.30;;;;;;8342011;28;19939;-79
2023/06/03 15:50:41;;;;;;;;;;;25.00;74.70;;;;;;8338523;28;19917;-79
2023/06/03 15:54:42;;;;;;;;;;;24.20;77.20;;;;;;8335820;28;19916;-78
2023/06/03 15:58:42;;;;;;;;;;;23.80;75.60;;;;;;8323669;28;19966;-79
2023/06/03 16:02:43;;;;;;;;;;;23.30;78.30;;;;;;8321787;28;19935;-79
2023/06/03 16:06:43;;;;;;;;;;;23.20;79.60;;;;;;8317989;28;19917;-78
2023/06/03 16:10:44;;;;;;;;;;;23.00;82.40;;;;;;8323732;28;20437;-78
2023/06/03 16:14:44;;;;;;;;;;;23.10;81.50;;;;;;8341659;28;20412;-78
2023/06/03 16:18:45;;;;;;;;;;;23.00;80.10;;;;;;8334969;28;20560;-79
2023/06/03 16:22:45;;;;;;;;;;;23.10;81.10;;;;;;8334582;28;19924;-79
2023/06/03 16:26:46;;;;;;;;;;;23.30;83.00;;;;;;8328848;28;19928;-79
2023/06/03 16:30:46;;;;;;;;;;;23.30;79.40;;;;;;8350718;28;19913;-79
2023/06/03 16:34:47;;;;;;;;;;;23.30;79.90;;;;;;8346387;28;19998;-79
2023/06/03 16:38:47;;;;;;;;;;;23.00;81.30;;;;;;8341077;28;20011;-79
2023/06/03 16:42:48;;;;;;;;;;;22.80;80.90;;;;;;8322809;28;19928;-77
2023/06/03 16:46:48;;;;;;;;;;;22.80;80.40;;;;;;8336369;28;20011;-78
2023/06/03 16:50:49;;;;;;;;;;;22.70;82.80;;;;;;8343008;28;19917;-76
2023/06/03 16:54:50;;;;;;;;;;;22.50;82.70;;;;;;8341281;28;19913;-78
2023/06/03 16:58:51;;;;;;;;;;;22.50;83.70;;;;;;8318467;28;19920;-78
2023/06/03 17:02:51;;;;;;;;;;;22.30;83.40;;;;;;8326567;28;20518;-78
2023/06/03 17:06:51;;;;;;;;;;;22.20;84.80;;;;;;8331385;28;19928;-76
2023/06/03 17:10:52;;;;;;;;;;;22.00;86.30;;;;;;8329253;28;19925;-77
2023/06/03 17:14:54;;;;;;;;;;;21.70;84.50;;;;;;8346607;28;19970;-77
2023/06/03 17:18:54;;;;;;;;;;;21.70;87.60;;;;;;8340246;28;19913;-77
2023/06/03 17:22:55;;;;;;;;;;;21.60;87.30;;;;;;8318598;28;19925;-77
2023/06/03 17:26:55;;;;;;;;;;;21.50;87.90;;;;;;8342225;28;19919;-77
2023/06/03 17:30:56;;;;;;;;;;;21.50;85.90;;;;;;8321438;28;19913;-76
2023/06/03 17:34:56;;;;;;;;;;;21.40;86.50;;;;;;8323995;28;19967;-77
2023/06/03 17:38:57;;;;;;;;;;;21.20;88.20;;;;;;8328844;28;19913;-78
2023/06/03 17:42:57;;;;;;;;;;;21.10;87.90;;;;;;8345092;28;19917;-78
2023/06/03 17:46:58;;;;;;;;;;;21.10;88.80;;;;;;8329409;28;20397;-78
2023/06/03 17:50:58;;;;;;;;;;;21.10;89.70;;;;;;8347509;28;20393;-79
2023/06/03 17:54:58;;;;;;;;;;;21.10;89.70;;;;;;8334341;28;19960;-78
2023/06/03 17:58:59;;;;;;;;;;;21.00;89.00;;;;;;8316478;28;19913;-80
2023/06/03 18:03:00;;;;;;;;;;;20.70;88.90;;;;;;8325711;28;20564;-77
2023/06/03 18:07:01;;;;;;;;;;;20.70;90.70;;;;;;8320662;28;19917;-77
2023/06/03 18:11:01;;;;;;;;;;;20.70;90.20;;;;;;8347373;28;20293;-80
2023/06/03 18:15:02;;;;;;;;;;;20.30;90.60;;;;;;8331375;28;20497;-78
2023/06/03 18:19:03;;;;;;;;;;;20.20;90.60;;;;;;8332051;28;19991;-78
2023/06/03 18:23:03;;;;;;;;;;;20.40;91.50;;;;;;8324674;28;20300;-78
2023/06/03 18:27:04;;;;;;;;;;;20.10;91.80;;;;;;8340424;28;19959;-77
2023/06/03 18:31:05;;;;;;;;;;;19.80;92.60;;;;;;8350521;28;20078;-78
2023/06/03 18:35:05;;;;;;;;;;;19.60;93.80;;;;;;8327639;28;19999;-78
2023/06/03 18:39:06;;;;;;;;;;;19.10;95.40;;;;;;8343790;28;19913;-80
2023/06/03 18:43:07;;;;;;;;;;;18.70;97.20;;;;;;8347429;28;19913;-78
2023/06/03 18:47:08;;;;;;;;;;;18.20;99.10;;;;;;8327383;28;19923;-77
2023/06/03 18:51:08;;;;;;;;;;;17.80;99.90;;;;;;8318943;28;19928;-78
2023/06/03 18:55:09;;;;;;;;;;;17.50;99.90;;;;;;8329737;28;19956;-79
2023/06/03 18:59:10;;;;;;;;;;;17.20;99.90;;;;;;8338358;28;19938;-79
2023/06/03 19:03:10;;;;;;;;;;;16.90;99.90;;;;;;8330314;28;19921;-78
2023/06/03 19:07:10;;;;;;;;;;;16.70;99.90;;;;;;8332932;28;19924;-78
2023/06/03 19:11:11;;;;;;;;;;;16.50;99.90;;;;;;8343037;28;19913;-79
2023/06/03 19:15:12;;;;;;;;;;;16.50;99.90;;;;;;8332171;28;19920;-79
2023/06/03 19:19:12;;;;;;;;;;;16.40;99.90;;;;;;8355235;28;20376;-79
2023/06/03 19:23:13;;;;;;;;;;;15.90;99.90;;;;;;8338424;28;19912;-79
2023/06/03 19:27:13;;;;;;;;;;;16.00;99.90;;;;;;8326446;28;20642;-79
2023/06/03 19:31:14;;;;;;;;;;;15.70;99.90;;;;;;8331865;28;19943;-80
2023/06/03 19:35:15;;;;;;;;;;;15.50;99.90;;;;;;8332671;28;19948;-77
2023/06/03 19:39:15;;;;;;;;;;;15.40;99.90;;;;;;8349481;28;19917;-79
2023/06/03 19:43:16;;;;;;;;;;;15.20;99.90;;;;;;8344792;28;19913;-80
2023/06/03 19:47:16;;;;;;;;;;;15.20;99.90;;;;;;8336687;28;19920;-78
2023/06/03 19:51:18;;;;;;;;;;;15.00;99.90;;;;;;8340766;28;19943;-79
2023/06/03 19:55:19;;;;;;;;;;;14.90;99.90;;;;;;8356534;28;19924;-78
2023/06/03 19:59:19;;;;;;;;;;;14.80;99.90;;;;;;8330771;28;19913;-78
2023/06/03 20:03:20;;;;;;;;;;;14.70;99.90;;;;;;8328381;28;19968;-77
2023/06/03 20:07:21;;;;;;;;;;;14.60;99.90;;;;;;8340690;28;20074;-78
2023/06/03 20:11:21;;;;;;;;;;;14.50;99.90;;;;;;8325293;28;19928;-78
2023/06/03 20:15:22;;;;;;;;;;;14.40;99.90;;;;;;8328834;28;20361;-80
2023/06/03 20:19:22;;;;;;;;;;;14.30;99.90;;;;;;8336641;28;19916;-79
2023/06/03 20:23:23;;;;;;;;;;;14.10;99.90;;;;;;8329952;28;19913;-80
2023/06/03 20:27:23;;;;;;;;;;;14.10;99.90;;;;;;8337837;28;19938;-78
2023/06/03 20:31:24;;;;;;;;;;;13.90;99.90;;;;;;8331144;28;19971;-79
2023/06/03 20:35:25;;;;;;;;;;;13.80;99.90;;;;;;8335761;28;19917;-79
2023/06/03 20:39:26;;;;;;;;;;;13.60;99.90;;;;;;8336147;28;19919;-78
2023/06/03 20:43:27;;;;;;;;;;;13.50;99.90;;;;;;8351677;28;20015;-79
2023/06/03 20:47:27;;;;;;;;;;;13.50;99.90;;;;;;8356514;28;19913;-79
2023/06/03 20:51:28;;;;;;;;;;;13.40;99.90;;;;;;8326500;28;19917;-78
2023/06/03 20:55:28;;;;;;;;;;;13.30;99.90;;;;;;8348519;28;20389;-79
2023/06/03 20:59:28;;;;;;;;;;;13.30;99.90;;;;;;8345747;28;19944;-79
2023/06/03 21:03:29;;;;;;;;;;;13.20;99.90;;;;;;8348663;28;20363;-79
2023/06/03 21:07:30;;;;;;;;;;;13.10;99.90;;;;;;8323687;28;19916;-78
2023/06/03 21:11:30;;;;;;;;;;;13.00;99.90;;;;;;8326679;28;19909;-79
2023/06/03 21:15:31;;;;;;;;;;;13.00;99.90;;;;;;8339855;28;19919;-80
2023/06/03 21:19:31;;;;;;;;;;;12.90;99.90;;;;;;8332060;28;19913;-79
2023/06/03 21:23:32;;;;;;;;;;;12.90;99.90;;;;;;8334577;28;19919;-79
2023/06/03 21:27:32;;;;;;;;;;;12.90;99.90;;;;;;8328981;28;19948;-78
2023/06/03 21:31:33;;;;;;;;;;;12.70;99.90;;;;;;8340013;28;20377;-78
2023/06/03 21:35:33;;;;;;;;;;;12.60;99.90;;;;;;8343986;28;20448;-78
2023/06/03 21:39:34;;;;;;;;;;;12.40;99.90;;;;;;8345264;28;19917;-79
2023/06/03 21:43:34;;;;;;;;;;;12.20;99.90;;;;;;8329148;28;19952;-78
2023/06/03 21:47:35;;;;;;;;;;;12.20;99.90;;;;;;8355253;28;19917;-79
2023/06/03 21:51:36;;;;;;;;;;;12.20;99.90;;;;;;8345694;28;19919;-77
2023/06/03 21:55:37;;;;;;;;;;;12.00;99.90;;;;;;8329909;28;20450;-78
2023/06/03 21:59:39;;;;;;;;;;;11.90;99.90;;;;;;8328809;28;19917;-79
2023/06/03 22:03:39;;;;;;;;;;;12.00;99.90;;;;;;8316712;28;19925;-78
2023/06/03 22:07:40;;;;;;;;;;;12.00;99.90;;;;;;8335536;28;20019;-79
2023/06/03 22:11:40;;;;;;;;;;;11.80;99.90;;;;;;8332241;28;19955;-80
2023/06/03 22:15:41;;;;;;;;;;;11.50;99.90;;;;;;8322092;28;19917;-78
2023/06/03 22:19:41;;;;;;;;;;;11.50;99.90;;;;;;8330634;28;19917;-78
2023/06/03 22:23:42;;;;;;;;;;;11.10;99.90;;;;;;8320273;28;19917;-79
2023/06/03 22:27:42;;;;;;;;;;;10.90;99.90;;;;;;8345012;28;20332;-79
2023/06/03 22:31:43;;;;;;;;;;;10.80;99.90;;;;;;8330089;28;19916;-80
2023/06/03 22:35:43;;;;;;;;;;;10.70;99.90;;;;;;8351898;28;19957;-78
2023/06/03 22:39:43;;;;;;;;;;;11.10;99.90;;;;;;8337657;28;20007;-77
2023/06/03 22:43:44;;;;;;;;;;;11.10;99.90;;;;;;8333272;28;19912;-79
2023/06/03 22:47:45;;;;;;;;;;;10.90;99.90;;;;;;8335309;28;20407;-80
2023/06/03 22:51:46;;;;;;;;;;;10.60;99.90;;;;;;8331728;28;20015;-80
2023/06/03 22:55:46;;;;;;;;;;;10.60;99.90;;;;;;8350097;28;19910;-79
2023/06/03 22:59:46;;;;;;;;;;;10.50;99.90;;;;;;8344071;28;20355;-79
2023/06/03 23:03:47;;;;;;;;;;;10.70;99.90;;;;;;8324206;28;19917;-79
2023/06/03 23:07:47;;;;;;;;;;;10.60;99.90;;;;;;8338624;28;19924;-78
2023/06/03 23:11:48;;;;;;;;;;;10.40;99.90;;;;;;8318146;28;20327;-79
2023/06/03 23:15:48;;;;;;;;;;;10.20;99.90;;;;;;8353248;28;19978;-79
2023/06/03 23:19:49;;;;;;;;;;;10.00;99.90;;;;;;8321586;28;19914;-79
2023/06/03 23:23:49;;;;;;;;;;;9.90;99.90;;;;;;8335136;28;19921;-78
2023/06/03 23:27:50;;;;;;;;;;;9.90;99.90;;;;;;8332174;28;19916;-78
2023/06/03 23:31:50;;;;;;;;;;;9.90;99.90;;;;;;8328790;28;19914;-79